CST,Max TemperatureF,Mean TemperatureF,Min TemperatureF,Max Dew PointF,MeanDew PointF,Min DewpointF,Max Humidity, Mean Humidity, Min Humidity, Max Sea Level PressureIn, Mean Sea Level PressureIn, Min Sea Level PressureIn, Max VisibilityMiles, Mean VisibilityMiles, Min VisibilityMiles, Max Wind SpeedMPH, Mean Wind SpeedMPH, Max Gust SpeedMPH,PrecipitationIn, CloudCover, Events, WindDirDegrees
2011-2-1,5,1,-3,0,-5,-11,83,74,65,30.62,30.48,30.35,6,2,0,31,24,39,0.05,7,Snow,335
2011-2-2,10,3,-5,-3,-9,-13,72,62,52,30.78,30.69,30.50,10,9,5,29,13,36,0.00,0,,293
2011-2-3,25,13,0,12,2,-9,69,60,50,30.58,30.35,30.20,10,10,10,21,14,25,0.00,0,,217
2011-2-4,40,25,9,28,19,6,92,77,62,30.18,29.97,29.76,10,10,10,13,4,15,0.00,1,,253
2011-2-5,38,28,18,36,30,16,100,91,82,29.78,29.60,29.51,10,7,1,28,8,32,0.07,7,Rain-Snow,305
2011-2-6,32,25,18,29,25,13,92,85,78,30.32,30.07,29.75,10,6,2,28,17,36,0.02,8,Snow,343
2011-2-7,18,8,-2,13,0,-10,86,78,69,30.51,30.33,30.24,10,10,4,26,14,31,T,5,Snow,338
2011-2-8,5,-2,-9,-3,-10,-15,79,71,62,30.71,30.62,30.53,10,10,10,21,10,25,0.00,0,,322
2011-2-9,15,8,1,0,-4,-9,76,64,51,30.55,30.42,30.21,10,10,10,17,9,21,0.00,0,,276
2011-2-10,34,21,7,18,10,-1,77,63,49,30.17,30.03,29.97,10,10,10,17,10,22,0.00,0,,256
2011-2-11,41,31,21,30,24,16,78,71,64,30.14,30.02,29.94,10,10,10,23,12,30,0.00,1,,273
2011-2-12,46,37,28,31,27,23,85,69,53,30.13,30.01,29.91,10,10,10,18,10,22,0.00,0,,246
2011-2-13,57,44,30,34,28,25,75,57,38,30.07,29.82,29.65,10,10,10,30,13,38,0.00,0,,263
2011-2-14,48,39,30,32,28,23,89,69,49,30.30,30.19,30.05,10,10,10,22,10,28,0.00,0,,226
2011-2-15,59,46,32,35,31,28,82,61,40,30.03,29.91,29.85,10,10,10,24,10,30,0.00,0,,204
2011-2-16,62,46,30,40,33,26,78,57,36,29.89,29.69,29.46,10,10,10,26,10,33,0.00,0,,171
2011-2-17,68,50,31,42,30,15,96,58,19,30.01,29.59,29.37,10,9,6,26,10,35,0.00,0,,265
2011-2-18,53,37,21,30,24,16,88,56,24,30.27,30.21,30.02,10,10,10,10,6,16,0.00,0,,167
2011-2-19,51,41,30,36,31,26,92,73,53,30.27,30.14,29.96,10,10,9,20,10,26,T,3,,114
2011-2-20,41,28,14,34,28,8,100,87,73,29.85,29.68,29.51,10,6,1,28,16,33,0.36,8,Rain-Snow-Thunderstorm,20
2011-2-21,20,15,9,9,5,2,80,71,61,30.21,30.00,29.82,10,10,9,28,17,32,T,5,Snow,306
2011-2-22,39,23,6,20,11,1,88,64,40,30.22,30.13,30.00,10,10,10,21,9,24,0.00,0,,170
2011-2-23,50,35,19,26,21,16,91,67,42,30.20,30.01,29.91,10,9,6,23,10,28,0.00,2,,328
2011-2-24,22,15,8,17,10,3,91,77,62,30.31,30.18,30.10,10,6,1,24,17,31,T,8,Snow,354
2011-2-25,11,8,4,2,0,-2,83,75,66,30.40,30.29,30.18,10,5,1,22,11,26,0.03,8,Snow,353
2011-2-26,21,14,6,19,8,1,91,84,76,30.17,29.91,29.71,10,4,1,13,7,16,0.06,8,Snow,139
2011-2-27,36,27,18,28,22,13,92,78,64,30.01,29.77,29.66,10,8,3,25,13,31,0.00,4,,311
2011-2-28,43,27,10,23,16,7,88,62,36,30.27,30.15,30.04,10,10,10,20,9,25,0.00,0,,206